Time;durP1;ratioP1;P1;durP2;ratioP2;P2;SDS_P1;SDS_P2;PMS_P1;PMS_P2;Temp;Humidity;BMP_temperature;BMP_pressure;BME280_temperature;BME280_humidity;BME280_pressure;Samples;Min_cycle;Max_cycle;Signal;HPM_P1;HPM_P2
2021/12/10 00:00:44;;;;;;;6.18;3.58;;;4.30;99.90;;;;;;5035151;28;20029;-62
2021/12/10 00:03:16;;;;;;;10.18;4.75;;;4.30;99.90;;;;;;5026623;28;20045;-62
2021/12/10 00:05:48;;;;;;;5.72;3.78;;;4.30;99.90;;;;;;5015194;28;20119;-68
2021/12/10 00:08:15;;;;;;;5.88;3.63;;;4.30;99.90;;;;;;5014202;28;20029;-61
2021/12/10 00:10:46;;;;;;;8.20;4.22;;;4.40;99.90;;;;;;5012051;28;20125;-57
2021/12/10 00:13:13;;;;;;;8.60;5.45;;;4.30;99.90;;;;;;5013853;28;20038;-46
2021/12/10 00:15:40;;;;;;;6.07;4.47;;;6.90;99.90;;;;;;5012049;28;20030;-63
2021/12/10 00:18:09;;;;;;;7.93;3.30;;;7.70;99.90;;;;;;5031088;28;20041;-60
2021/12/10 00:20:39;;;;;;;4.75;3.15;;;6.30;99.90;;;;;;5048079;28;20029;-59
2021/12/10 00:23:10;;;;;;;4.65;3.35;;;5.60;99.90;;;;;;5032290;28;20030;-55
2021/12/10 00:25:40;;;;;;;6.47;3.83;;;5.20;99.90;;;;;;5032658;28;20034;-63
2021/12/10 00:28:20;;;;;;;11.07;4.03;;;4.90;99.90;;;;;;5033829;28;20303;-63
2021/12/10 00:31:03;;;;;;;9.63;3.83;;;4.70;99.90;;;;;;5031596;28;20046;-65
2021/12/10 00:33:35;;;;;;;7.97;3.85;;;4.70;99.90;;;;;;5032472;28;20059;-59
2021/12/10 00:36:01;;;;;;;5.15;3.45;;;4.60;99.90;;;;;;5033572;28;20108;-56
2021/12/10 00:38:28;;;;;;;8.10;3.65;;;4.40;99.90;;;;;;5033460;28;20072;-59
2021/12/10 00:40:55;;;;;;;10.82;3.80;;;4.50;99.90;;;;;;5032700;28;20033;-64
2021/12/10 00:43:22;;;;;;;9.18;4.25;;;4.50;99.90;;;;;;5032204;28;20091;-62
2021/12/10 00:45:48;;;;;;;13.20;3.92;;;4.50;99.90;;;;;;5031567;28;20037;-62
2021/12/10 00:48:14;;;;;;;8.60;3.03;;;4.50;99.90;;;;;;5033737;28;20037;-61
2021/12/10 00:50:45;;;;;;;7.72;3.15;;;4.60;99.90;;;;;;5032707;28;20074;-55
2021/12/10 00:53:12;;;;;;;10.73;4.20;;;4.50;99.90;;;;;;5032497;28;20033;-61
2021/12/10 00:55:37;;;;;;;9.05;3.53;;;4.50;99.90;;;;;;5031760;28;20079;-64
2021/12/10 00:58:04;;;;;;;10.95;3.45;;;4.50;99.90;;;;;;5033545;28;20093;-67
2021/12/10 01:00:37;;;;;;;9.43;3.60;;;4.60;99.90;;;;;;5033495;28;20108;-60
2021/12/10 01:03:07;;;;;;;7.88;3.40;;;4.60;99.90;;;;;;5033083;28;20395;-60
2021/12/10 01:05:33;;;;;;;7.25;3.25;;;4.60;99.90;;;;;;5031655;28;20124;-66
2021/12/10 01:07:59;;;;;;;7.82;3.88;;;4.60;99.90;;;;;;5032466;28;20091;-59
2021/12/10 01:10:33;;;;;;;8.15;4.18;;;4.50;99.90;;;;;;5033248;28;20034;-66
2021/12/10 01:13:02;;;;;;;10.88;3.80;;;4.50;99.90;;;;;;5032668;28;20040;-60
2021/12/10 01:15:48;;;;;;;9.55;4.30;;;4.50;99.90;;;;;;5032702;28;20041;-60
2021/12/10 01:23:47;;;;;;;6.88;4.20;;;4.40;99.90;;;;;;5033077;28;20087;-60
2021/12/10 01:24:16;;;;;;;9.93;3.50;;;4.50;99.90;;;;;;5032613;28;20030;-58
2021/12/10 01:29:16;;;;;;;8.98;3.22;;;4.50;99.90;;;;;;5032648;28;20055;-62
2021/12/10 01:31:43;;;;;;;14.93;4.40;;;4.60;99.90;;;;;;5032181;28;20029;-62
2021/12/10 01:34:09;;;;;;;9.10;3.60;;;4.50;99.90;;;;;;5032724;28;20128;-59
2021/12/10 01:36:36;;;;;;;9.90;3.92;;;4.50;99.90;;;;;;5032308;28;20471;-74
2021/12/10 01:39:07;;;;;;;15.80;3.50;;;4.60;99.90;;;;;;5032060;28;20026;-62
2021/12/10 01:41:37;;;;;;;10.82;3.67;;;4.60;99.90;;;;;;5032526;28;20111;-55
2021/12/10 01:44:14;;;;;;;9.70;3.83;;;4.50;99.90;;;;;;5032219;28;20026;-60
2021/12/10 01:46:40;;;;;;;10.20;3.58;;;4.50;99.90;;;;;;5030528;28;20037;-65
2021/12/10 01:49:09;;;;;;;8.32;3.35;;;4.50;99.90;;;;;;5032084;28;20346;-63
2021/12/10 01:51:37;;;;;;;14.77;4.35;;;4.50;99.90;;;;;;5031030;28;20028;-66
2021/12/10 01:54:18;;;;;;;12.55;3.80;;;4.50;99.90;;;;;;5030318;28;20053;-59
2021/12/10 01:56:47;;;;;;;7.25;3.50;;;4.50;99.90;;;;;;5031655;28;20099;-63
2021/12/10 01:59:15;;;;;;;13.27;4.00;;;4.50;99.90;;;;;;5030767;28;20128;-56
2021/12/10 02:01:51;;;;;;;9.95;3.67;;;4.40;99.90;;;;;;5029579;28;20129;-67
2021/12/10 02:04:31;;;;;;;14.43;3.80;;;4.50;99.90;;;;;;5030868;28;20030;-63
2021/12/10 02:06:57;;;;;;;13.80;4.10;;;4.60;99.90;;;;;;5031095;28;20144;-67
2021/12/10 02:09:24;;;;;;;11.60;4.38;;;4.70;99.90;;;;;;5031815;28;20112;-67
2021/12/10 02:11:50;;;;;;;9.85;3.55;;;4.70;99.90;;;;;;5029800;28;20489;-66
2021/12/10 02:14:16;;;;;;;12.27;3.08;;;4.60;99.90;;;;;;5031652;28;20048;-64
2021/12/10 02:16:43;;;;;;;12.85;4.43;;;4.60;99.90;;;;;;5030828;28;20527;-63
2021/12/10 02:19:13;;;;;;;13.20;4.78;;;4.70;99.90;;;;;;5029836;28;20050;-58
2021/12/10 02:21:40;;;;;;;10.93;3.72;;;4.70;99.90;;;;;;5029815;28;20072;-76
2021/12/10 02:24:07;;;;;;;20.15;5.93;;;4.70;99.90;;;;;;5031451;28;20053;-57
2021/12/10 02:26:37;;;;;;;11.48;4.07;;;4.70;99.90;;;;;;5031687;28;20025;-58
2021/12/10 02:29:05;;;;;;;12.52;3.72;;;4.70;99.90;;;;;;5031068;28;20474;-63
2021/12/10 02:31:30;;;;;;;7.72;3.15;;;4.70;99.90;;;;;;5031598;28;20025;-59
2021/12/10 02:33:57;;;;;;;11.30;5.47;;;4.60;99.90;;;;;;5030746;28;20391;-58
2021/12/10 02:36:24;;;;;;;8.57;3.45;;;4.50;99.90;;;;;;5030160;28;20032;-62
2021/12/10 02:38:51;;;;;;;7.70;3.13;;;4.40;99.90;;;;;;5030713;28;20071;-60
2021/12/10 02:41:20;;;;;;;11.75;4.03;;;4.60;99.90;;;;;;5031497;28;20029;-64
2021/12/10 02:43:46;;;;;;;13.90;3.67;;;4.70;99.90;;;;;;5030448;28;20075;-66
2021/12/10 02:46:13;;;;;;;10.20;3.22;;;4.60;99.90;;;;;;5030200;28;20036;-57
2021/12/10 02:48:39;;;;;;;10.88;2.92;;;4.60;99.90;;;;;;5030911;28;20033;-69
2021/12/10 02:51:07;;;;;;;7.18;2.50;;;4.50;99.90;;;;;;5030463;28;20033;-56
2021/12/10 02:53:40;;;;;;;10.73;4.28;;;4.70;99.90;;;;;;5030094;28;20025;-60
2021/12/10 02:56:06;;;;;;;6.78;2.95;;;4.70;99.90;;;;;;5031048;28;20060;-57
2021/12/10 02:58:32;;;;;;;7.65;2.65;;;4.50;99.90;;;;;;5031070;28;20107;-66
2021/12/10 03:00:57;;;;;;;9.38;3.22;;;4.50;99.90;;;;;;5030490;28;20133;-59
2021/12/10 03:03:23;;;;;;;9.98;2.72;;;4.40;99.90;;;;;;5029804;28;20510;-55
2021/12/10 03:05:49;;;;;;;9.27;2.38;;;4.60;99.90;;;;;;5028930;28;20044;-62
2021/12/10 03:08:15;;;;;;;8.38;3.55;;;4.50;99.90;;;;;;5030936;28;20120;-64
2021/12/10 03:10:41;;;;;;;9.95;4.30;;;4.50;99.90;;;;;;5030588;28;20036;-73
2021/12/10 03:13:08;;;;;;;9.52;2.85;;;4.50;99.90;;;;;;5030785;28;20033;-58
2021/12/10 03:15:35;;;;;;;9.20;2.90;;;4.60;99.90;;;;;;5031004;28;20080;-64
2021/12/10 03:18:03;;;;;;;12.48;2.85;;;4.60;99.90;;;;;;5029755;28;20045;-61
2021/12/10 03:20:30;;;;;;;5.95;2.30;;;4.70;99.90;;;;;;5034000;28;20120;-59
2021/12/10 03:22:58;;;;;;;11.85;2.50;;;4.70;99.90;;;;;;5033035;28;20040;-60
2021/12/10 03:25:23;;;;;;;7.93;2.05;;;4.60;99.90;;;;;;5034744;28;20124;-65
2021/12/10 03:27:50;;;;;;;16.27;2.15;;;4.70;99.90;;;;;;5032289;28;20060;-55
2021/12/10 03:30:27;;;;;;;4.80;2.25;;;4.60;99.90;;;;;;5034799;28;20034;-57
2021/12/10 03:32:54;;;;;;;6.82;2.15;;;4.50;99.90;;;;;;5031161;28;20037;-59
2021/12/10 03:35:26;;;;;;;9.15;2.55;;;4.50;99.90;;;;;;5033462;28;20033;-58
2021/12/10 03:37:52;;;;;;;7.00;3.30;;;4.70;99.90;;;;;;5034012;28;20030;-63
2021/12/10 03:40:19;;;;;;;9.25;2.45;;;4.60;99.90;;;;;;5034710;28;20025;-65
2021/12/10 03:42:47;;;;;;;8.70;2.65;;;4.60;99.90;;;;;;5032768;28;20383;-73
2021/12/10 03:45:14;;;;;;;8.05;4.10;;;4.60;99.90;;;;;;5034836;28;20037;-57
2021/12/10 03:47:41;;;;;;;7.93;2.08;;;4.60;99.90;;;;;;5034737;28;20116;-64
2021/12/10 03:50:09;;;;;;;5.65;1.92;;;4.60;99.90;;;;;;5033943;28;20075;-59
2021/12/10 03:52:35;;;;;;;8.02;2.03;;;4.60;99.90;;;;;;5033029;28;20030;-56
2021/12/10 03:55:01;;;;;;;10.98;2.40;;;4.70;99.90;;;;;;5033552;28;20037;-62
2021/12/10 03:57:27;;;;;;;12.07;2.40;;;4.60;99.90;;;;;;5033379;28;20224;-61
2021/12/10 03:59:53;;;;;;;5.07;1.73;;;4.50;99.90;;;;;;5033789;28;20130;-63
2021/12/10 04:02:19;;;;;;;8.10;2.05;;;4.50;99.90;;;;;;5033057;28;20045;-58
2021/12/10 04:04:47;;;;;;;6.22;1.80;;;4.40;99.90;;;;;;5033600;28;20030;-75
2021/12/10 04:07:20;;;;;;;8.70;2.35;;;4.40;99.90;;;;;;5033835;28;20037;-65
2021/12/10 04:09:46;;;;;;;8.98;2.20;;;4.30;99.90;;;;;;5033546;28;20045;-75
2021/12/10 04:12:12;;;;;;;8.88;2.15;;;4.30;99.90;;;;;;5033364;28;20029;-64
2021/12/10 04:14:39;;;;;;;6.55;2.70;;;4.30;99.90;;;;;;5032505;28;20021;-64
2021/12/10 04:17:05;;;;;;;13.30;2.10;;;4.20;99.90;;;;;;5033012;28;20107;-64
2021/12/10 04:19:33;;;;;;;4.90;3.03;;;4.20;99.90;;;;;;5032279;28;20143;-57
2021/12/10 04:22:01;;;;;;;4.07;2.13;;;4.10;99.90;;;;;;5032047;28;20029;-57
2021/12/10 04:24:30;;;;;;;4.68;1.67;;;4.10;99.90;;;;;;5034011;28;20165;-60
2021/12/10 04:26:58;;;;;;;8.27;2.88;;;4.00;99.90;;;;;;5033077;28;20053;-55
2021/12/10 04:29:24;;;;;;;8.18;2.15;;;4.00;99.90;;;;;;5033553;28;20032;-65
2021/12/10 04:31:53;;;;;;;9.30;2.20;;;4.00;99.90;;;;;;5033351;28;20030;-67
2021/12/10 04:34:20;;;;;;;7.88;2.33;;;4.00;99.90;;;;;;5034399;28;20482;-63
2021/12/10 04:36:46;;;;;;;10.70;3.45;;;4.00;99.90;;;;;;5032344;28;20025;-74
2021/12/10 04:39:12;;;;;;;11.25;2.55;;;4.00;99.90;;;;;;5032032;28;20037;-65
2021/12/10 04:41:38;;;;;;;8.38;3.22;;;3.90;99.90;;;;;;5033484;28;20333;-59
2021/12/10 04:44:05;;;;;;;16.60;3.92;;;3.90;99.90;;;;;;5032997;28;20029;-62
2021/12/10 04:46:32;;;;;;;9.00;2.83;;;3.90;99.90;;;;;;5033595;28;20036;-59
2021/12/10 04:49:01;;;;;;;7.20;2.72;;;3.90;99.90;;;;;;5033407;28;20033;-62
2021/12/10 04:51:30;;;;;;;10.60;2.88;;;3.80;99.90;;;;;;5032302;28;20127;-60
2021/12/10 04:53:58;;;;;;;8.60;3.13;;;3.70;99.90;;;;;;5031358;28;20147;-60
2021/12/10 04:56:25;;;;;;;10.57;2.85;;;3.60;99.90;;;;;;5032185;28;20466;-66
2021/12/10 04:58:51;;;;;;;8.35;2.97;;;3.70;99.90;;;;;;5032499;28;20500;-72
2021/12/10 05:01:17;;;;;;;8.20;3.55;;;3.60;99.90;;;;;;5032124;28;20034;-63
2021/12/10 05:03:43;;;;;;;7.65;3.70;;;3.50;99.90;;;;;;5033203;28;20037;-56
2021/12/10 05:06:09;;;;;;;7.55;3.38;;;3.50;99.90;;;;;;5032523;28;20056;-66
2021/12/10 05:08:36;;;;;;;7.45;3.28;;;3.50;99.90;;;;;;5031870;28;20057;-55
2021/12/10 05:11:05;;;;;;;10.77;3.20;;;3.50;99.90;;;;;;5032340;28;20550;-63
2021/12/10 05:13:31;;;;;;;10.23;3.17;;;3.40;99.90;;;;;;5033092;28;20098;-62
2021/12/10 05:15:58;;;;;;;11.65;4.18;;;3.30;99.90;;;;;;5032085;28;20078;-58
2021/12/10 05:18:27;;;;;;;13.93;4.78;;;3.30;99.90;;;;;;5032854;28;20435;-59
2021/12/10 05:20:53;;;;;;;4.68;2.80;;;3.30;99.90;;;;;;5030467;28;20112;-63
2021/12/10 05:23:20;;;;;;;8.43;2.70;;;3.20;99.90;;;;;;5032373;28;20495;-60
2021/12/10 05:25:45;;;;;;;8.40;2.97;;;3.20;99.90;;;;;;5031985;28;20044;-60
2021/12/10 05:28:12;;;;;;;8.23;3.58;;;3.20;99.90;;;;;;5031347;28;20569;-61
2021/12/10 05:30:38;;;;;;;6.53;3.00;;;3.10;99.90;;;;;;5030974;28;20544;-59
2021/12/10 05:33:05;;;;;;;10.10;3.20;;;3.20;99.90;;;;;;5031712;28;20050;-60
2021/12/10 05:35:33;;;;;;;10.73;3.33;;;3.20;99.90;;;;;;5031127;28;20033;-61
2021/12/10 05:38:00;;;;;;;15.30;3.15;;;3.10;99.90;;;;;;5030212;28;20389;-66
2021/12/10 05:40:26;;;;;;;6.35;4.38;;;3.20;99.90;;;;;;5030362;28;20025;-61
2021/12/10 05:42:52;;;;;;;7.97;3.63;;;3.00;99.90;;;;;;5030474;28;20036;-61
2021/12/10 05:45:20;;;;;;;16.88;3.88;;;3.00;99.90;;;;;;5031553;28;20025;-61
2021/12/10 05:47:47;;;;;;;6.95;2.97;;;3.00;99.90;;;;;;5031790;28;20017;-60
2021/12/10 05:50:17;;;;;;;7.10;2.95;;;2.90;99.90;;;;;;5030766;28;20494;-61
2021/12/10 05:52:43;;;;;;;7.63;3.70;;;2.90;99.90;;;;;;5031514;28;20036;-62
2021/12/10 05:55:10;;;;;;;11.70;4.55;;;2.90;99.90;;;;;;5047517;28;20100;-63
2021/12/10 05:57:36;;;;;;;10.13;4.15;;;2.90;99.90;;;;;;5032624;28;20025;-61
2021/12/10 06:00:05;;;;;;;13.52;3.75;;;2.90;99.90;;;;;;5030425;28;20029;-61
2021/12/10 06:02:31;;;;;;;11.02;3.28;;;3.00;99.90;;;;;;5047258;28;20036;-61
2021/12/10 06:04:57;;;;;;;11.27;4.03;;;3.00;99.90;;;;;;5031687;28;20127;-62
2021/12/10 06:07:22;;;;;;;9.23;3.88;;;3.00;99.90;;;;;;5032096;28;20025;-55
2021/12/10 06:09:48;;;;;;;6.78;2.78;;;2.90;99.90;;;;;;5032157;28;20044;-59
2021/12/10 06:12:14;;;;;;;13.70;3.90;;;2.80;99.90;;;;;;5032036;28;20022;-61
2021/12/10 06:14:40;;;;;;;11.40;3.67;;;3.00;99.90;;;;;;5032128;28;20466;-61
2021/12/10 06:17:06;;;;;;;9.15;3.33;;;2.90;99.90;;;;;;5031594;28;20017;-61
2021/12/10 06:19:32;;;;;;;8.02;3.15;;;2.80;99.90;;;;;;5031812;28;20041;-66
2021/12/10 06:21:57;;;;;;;7.72;3.33;;;3.00;99.90;;;;;;5031683;28;20405;-61
2021/12/10 06:24:23;;;;;;;5.28;3.10;;;3.00;99.90;;;;;;5032136;28;20025;-62
2021/12/10 06:26:52;;;;;;;11.98;3.67;;;3.00;99.90;;;;;;5032329;28;20103;-61
2021/12/10 06:29:18;;;;;;;6.20;2.90;;;2.90;99.90;;;;;;5032098;28;20032;-62
2021/12/10 06:31:43;;;;;;;8.90;3.10;;;2.80;99.90;;;;;;5031694;28;20503;-61
2021/12/10 06:34:10;;;;;;;8.02;3.67;;;2.80;99.90;;;;;;5031293;28;20100;-61
2021/12/10 06:36:35;;;;;;;13.52;4.10;;;2.80;99.90;;;;;;5031569;28;20413;-61
2021/12/10 06:39:04;;;;;;;8.93;3.58;;;2.80;99.90;;;;;;5030788;28;20025;-62
2021/12/10 06:41:30;;;;;;;10.70;3.22;;;2.70;99.90;;;;;;5030136;28;20021;-57
2021/12/10 06:43:56;;;;;;;6.95;4.85;;;2.70;99.90;;;;;;5029650;28;20527;-61
2021/12/10 06:46:22;;;;;;;9.25;4.70;;;2.70;99.90;;;;;;5031580;28;20128;-61
2021/12/10 06:48:48;;;;;;;10.73;3.88;;;2.70;99.90;;;;;;5031439;28;20075;-61
2021/12/10 06:51:18;;;;;;;5.75;3.53;;;2.80;99.90;;;;;;5029125;28;20366;-61
2021/12/10 06:53:45;;;;;;;5.88;3.22;;;2.80;99.90;;;;;;5030181;28;20420;-61
2021/12/10 06:56:13;;;;;;;7.65;3.38;;;2.80;99.90;;;;;;5030780;28;20021;-60
2021/12/10 06:58:39;;;;;;;7.43;3.17;;;2.80;99.90;;;;;;5046495;28;20104;-62
2021/12/10 07:01:23;;;;;;;10.90;4.03;;;2.70;99.90;;;;;;5030577;28;20055;-61
2021/12/10 07:03:53;;;;;;;10.95;3.40;;;2.80;99.90;;;;;;5029776;28;20446;-62
2021/12/10 07:06:20;;;;;;;14.48;4.47;;;2.80;99.90;;;;;;5031003;28;20061;-61
2021/12/10 07:08:47;;;;;;;6.97;3.40;;;2.50;99.90;;;;;;5029808;28;20033;-66
2021/12/10 07:11:15;;;;;;;7.82;3.65;;;2.50;99.90;;;;;;5030249;28;20435;-61
2021/12/10 07:13:44;;;;;;;5.68;3.42;;;2.50;99.90;;;;;;5029579;28;20394;-61
2021/12/10 07:16:11;;;;;;;13.52;4.03;;;2.60;99.90;;;;;;5030521;28;20021;-61
2021/12/10 07:18:38;;;;;;;11.30;3.35;;;2.60;99.90;;;;;;5031031;28;20047;-56
2021/12/10 07:21:05;;;;;;;10.25;3.78;;;2.60;99.90;;;;;;5030322;28;20036;-62
2021/12/10 07:23:31;;;;;;;7.53;3.45;;;2.70;99.90;;;;;;5031104;28;20057;-66
2021/12/10 07:25:57;;;;;;;11.32;3.65;;;2.70;99.90;;;;;;5030346;28;20060;-67
2021/12/10 07:28:23;;;;;;;9.45;3.97;;;2.60;99.90;;;;;;5029398;28;20049;-63
2021/12/10 07:30:50;;;;;;;12.65;3.38;;;2.60;99.90;;;;;;5030715;28;20040;-59
2021/12/10 07:33:18;;;;;;;7.93;4.75;;;2.50;99.90;;;;;;5029099;28;20069;-57
2021/12/10 07:35:44;;;;;;;15.25;4.15;;;2.30;99.90;;;;;;5029730;28;20022;-61
2021/12/10 07:38:10;;;;;;;11.10;4.65;;;2.40;99.90;;;;;;5030203;28;20096;-61
2021/12/10 07:40:37;;;;;;;13.32;4.85;;;2.50;99.90;;;;;;5030616;28;20017;-64
2021/12/10 07:43:05;;;;;;;10.95;3.65;;;2.60;99.90;;;;;;5028654;28;20037;-58
2021/12/10 07:45:31;;;;;;;13.00;4.45;;;2.70;99.90;;;;;;5028814;28;20040;-62
2021/12/10 07:47:59;;;;;;;7.93;3.05;;;2.80;99.90;;;;;;5029893;28;20408;-78
2021/12/10 07:50:29;;;;;;;9.73;3.25;;;3.20;99.90;;;;;;5029221;28;20469;-60
2021/12/10 07:52:56;;;;;;;10.75;3.08;;;3.10;99.90;;;;;;5031026;28;20102;-62
2021/12/10 07:55:25;;;;;;;9.75;3.22;;;3.40;99.90;;;;;;5030076;28;20022;-64
2021/12/10 07:57:51;;;;;;;6.78;2.58;;;4.10;99.90;;;;;;5028885;28;20027;-63
2021/12/10 08:00:20;;;;;;;8.88;3.13;;;4.80;99.90;;;;;;5028367;28;20192;-63
2021/12/10 08:02:46;;;;;;;11.57;3.20;;;4.90;99.90;;;;;;5028928;28;20029;-63
2021/12/10 08:05:13;;;;;;;6.75;2.50;;;5.60;99.90;;;;;;5033111;28;20037;-62
2021/12/10 08:07:39;;;;;;;16.95;3.78;;;6.00;99.90;;;;;;5034317;28;20024;-63
2021/12/10 08:10:07;;;;;;;6.78;2.92;;;6.50;99.90;;;;;;5033455;28;20029;-62
2021/12/10 08:12:34;;;;;;;7.95;2.25;;;;;;;;;;5034181;28;20017;-63
2021/12/10 08:15:00;;;;;;;8.30;3.38;;;;;;;;;;5033846;28;20045;-61
2021/12/10 08:17:26;;;;;;;8.63;2.22;;;;;;;;;;5032807;28;20108;-62
2021/12/10 08:19:52;;;;;;;9.15;2.70;;;;;;;;;;5032573;28;20477;-59
2021/12/10 08:22:19;;;;;;;5.20;1.70;;;;;;;;;;5033398;28;20251;-61
2021/12/10 08:24:45;;;;;;;5.75;2.55;;;;;;;;;;5033614;28;20072;-61
2021/12/10 08:27:12;;;;;;;8.80;2.38;;;;;;;;;;5031788;28;20496;-62
2021/12/10 08:29:41;;;;;;;8.52;2.25;;;;;;;;;;5033983;28;20070;-61
2021/12/10 08:32:07;;;;;;;8.68;2.67;;;;;;;;;;5033068;28;20474;-62
2021/12/10 08:34:33;;;;;;;4.93;2.05;;;;;;;;;;5032104;28;20021;-62
2021/12/10 08:37:00;;;;;;;4.82;2.10;;;;;;;;;;5031907;28;20078;-84
2021/12/10 08:39:26;;;;;;;8.05;2.22;;;;;;;;;;5033617;28;20051;-61
2021/12/10 08:41:56;;;;;;;5.38;2.17;;;;;;;;;;5033622;28;20108;-61
2021/12/10 08:44:22;;;;;;;6.85;2.08;;;;;;;;;;5031798;28;20083;-67
2021/12/10 08:46:48;;;;;;;7.63;2.40;;;;;;;;;;5032203;28;20021;-63
2021/12/10 08:49:14;;;;;;;5.72;2.10;;;;;;;;;;5031529;28;20017;-60
2021/12/10 08:51:49;;;;;;;9.45;2.75;;;;;;;;;;5032940;28;20168;-62
2021/12/10 08:54:17;;;;;;;7.72;2.00;;;;;;;;;;5032851;28;20018;-59
2021/12/10 08:56:45;;;;;;;3.35;1.77;;;;;;;;;;5031901;28;20112;-62
2021/12/10 08:59:11;;;;;;;3.78;1.60;;;9.00;99.90;;;;;;5032759;28;20021;-61
2021/12/10 09:01:41;;;;;;;10.50;2.10;;;8.00;99.90;;;;;;5033385;28;20025;-61
2021/12/10 09:04:09;;;;;;;7.70;2.15;;;7.30;99.90;;;;;;5031423;28;20051;-62
2021/12/10 09:06:38;;;;;;;5.70;1.92;;;6.80;99.90;;;;;;5033526;28;20332;-65
2021/12/10 09:09:07;;;;;;;5.05;2.00;;;6.70;99.90;;;;;;5032676;28;20031;-60
2021/12/10 09:11:33;;;;;;;4.53;2.67;;;6.20;99.90;;;;;;5048639;28;20017;-61
2021/12/10 09:13:59;;;;;;;9.73;3.33;;;6.00;99.90;;;;;;5033338;28;20025;-60
2021/12/10 09:16:28;;;;;;;9.02;2.35;;;6.00;99.90;;;;;;5031547;28;20480;-61
2021/12/10 09:19:00;;;;;;;6.18;2.35;;;6.70;99.90;;;;;;5032683;28;20213;-62
2021/12/10 09:21:26;;;;;;;;;;;7.20;99.90;;;;;;5032768;28;20104;-61
2021/12/10 09:23:55;;;;;;;7.00;2.33;;;8.40;99.90;;;;;;5032097;28;20020;-63
2021/12/10 09:26:25;;;;;;;4.53;2.13;;;8.30;99.90;;;;;;5030717;28;20041;-61
2021/12/10 09:28:51;;;;;;;7.88;2.70;;;9.00;99.90;;;;;;5032797;28;20085;-62
2021/12/10 09:31:18;;;;;;;5.55;3.75;;;;;;;;;;5032485;28;20033;-63
2021/12/10 09:33:44;;;;;;;7.13;3.17;;;;;;;;;;5032889;28;20104;-61
2021/12/10 09:36:10;;;;;;;9.65;2.70;;;;;;;;;;5030957;28;20017;-62
2021/12/10 09:38:36;;;;;;;7.55;2.13;;;;;;;;;;5032933;28;20021;-61
2021/12/10 09:41:05;;;;;;;12.15;2.33;;;;;;;;;;5032267;28;20477;-63
2021/12/10 09:43:32;;;;;;;12.00;4.25;;;;;;;;;;5032488;28;20229;-61
2021/12/10 09:45:58;;;;;;;17.55;3.30;;;;;;;;;;5032359;28;20365;-61
2021/12/10 09:48:26;;;;;;;5.40;2.22;;;;;;;;;;5031630;28;20236;-62
2021/12/10 09:50:57;;;;;;;6.13;1.98;;;;;;;;;;5032333;28;20022;-61
2021/12/10 09:53:25;;;;;;;6.03;2.70;;;;;;;;;;5031678;28;20359;-61
2021/12/10 09:55:52;;;;;;;13.20;2.83;;;;;;;;;;5031730;28;20021;-61
2021/12/10 09:58:18;;;;;;;5.50;2.90;;;;;;;;;;5031451;28;20036;-63
2021/12/10 10:00:49;;;;;;;9.00;2.38;;;;;;;;;;5032407;28;20143;-63
2021/12/10 10:03:17;;;;;;;7.60;2.93;;;;;;;;;;5030312;28;20060;-62
2021/12/10 10:05:45;;;;;;;5.93;2.50;;;;;;;;;;5032194;28;20029;-63
2021/12/10 10:08:14;;;;;;;10.38;5.13;;;;;;;;;;5030125;28;20128;-64
2021/12/10 10:10:41;;;;;;;7.90;2.75;;;;;;;;;;5031794;28;20017;-62
2021/12/10 10:13:10;;;;;;;6.80;2.22;;;7.20;99.90;;;;;;5031511;28;20036;-65
2021/12/10 10:15:38;;;;;;;5.95;2.45;;;6.90;99.90;;;;;;5031753;28;20037;-62
2021/12/10 10:18:07;;;;;;;12.05;3.92;;;6.90;99.90;;;;;;5031366;28;20045;-63
2021/12/10 10:20:36;;;;;;;10.25;3.00;;;6.80;99.90;;;;;;5031401;28;20516;-60
2021/12/10 10:23:03;;;;;;;12.70;4.93;;;6.70;99.90;;;;;;5031811;28;20420;-63
2021/12/10 10:25:34;;;;;;;5.10;2.35;;;6.90;99.90;;;;;;5030834;28;20030;-63
2021/12/10 10:28:00;;;;;;;8.25;3.55;;;6.70;99.90;;;;;;5029888;28;20021;-63
2021/12/10 10:30:34;;;;;;;10.32;2.25;;;6.30;99.90;;;;;;5028714;28;20111;-63
2021/12/10 10:33:05;;;;;;;8.88;2.33;;;6.10;99.90;;;;;;5031068;28;20113;-63
2021/12/10 10:35:40;;;;;;;5.97;2.83;;;6.00;99.90;;;;;;5031131;28;20025;-64
2021/12/10 10:38:08;;;;;;;8.98;2.30;;;5.70;99.90;;;;;;5031030;28;20475;-62
2021/12/10 10:40:39;;;;;;;7.55;2.45;;;5.50;99.90;;;;;;5026770;28;20026;-63
2021/12/10 10:43:06;;;;;;;8.90;3.65;;;5.70;99.90;;;;;;5031072;28;20025;-63
2021/12/10 10:45:35;;;;;;;12.15;5.70;;;6.30;99.90;;;;;;5028830;28;20033;-64
2021/12/10 10:48:03;;;;;;;10.25;2.50;;;6.10;99.90;;;;;;5028910;28;20498;-64
2021/12/10 10:50:34;;;;;;;8.35;2.03;;;5.70;99.90;;;;;;5023123;28;20097;-63
2021/12/10 10:53:07;;;;;;;8.45;3.53;;;5.30;99.90;;;;;;5031056;28;20083;-62
2021/12/10 10:55:56;;;;;;;10.85;3.60;;;5.10;99.90;;;;;;5029421;28;20080;-62
2021/12/10 10:58:25;;;;;;;11.00;5.15;;;5.20;99.90;;;;;;5030485;28;20158;-63
2021/12/10 11:01:28;;;;;;;6.80;3.17;;;5.60;99.90;;;;;;5017893;28;20124;-62
2021/12/10 11:04:05;;;;;;;11.80;4.00;;;5.70;99.90;;;;;;5016928;28;20064;-64
2021/12/10 11:06:40;;;;;;;7.53;3.40;;;5.50;99.90;;;;;;5028933;28;20414;-61
2021/12/10 11:09:17;;;;;;;11.40;5.18;;;5.30;99.90;;;;;;5022963;28;20359;-62
2021/12/10 11:11:59;;;;;;;6.10;2.50;;;5.50;99.90;;;;;;5030325;28;20021;-60
2021/12/10 11:14:32;;;;;;;16.80;6.40;;;5.30;99.90;;;;;;5024209;28;20026;-62
2021/12/10 11:17:30;;;;;;;9.88;3.60;;;5.50;99.90;;;;;;5016025;28;20041;-62
2021/12/10 11:20:20;;;;;;;11.07;4.40;;;5.80;99.90;;;;;;5027005;28;20081;-62
2021/12/10 11:22:55;;;;;;;15.57;5.75;;;5.60;99.90;;;;;;5033468;28;20045;-62
2021/12/10 11:25:34;;;;;;;11.52;5.15;;;5.80;99.90;;;;;;5026592;28;20463;-62
2021/12/10 11:28:11;;;;;;;9.43;4.07;;;5.40;99.90;;;;;;5030378;28;20025;-63
2021/12/10 11:30:43;;;;;;;4.28;2.45;;;5.10;99.90;;;;;;5029874;28;20032;-62
2021/12/10 11:33:15;;;;;;;6.70;3.22;;;5.20;99.90;;;;;;5029906;28;20443;-62
2021/12/10 11:35:45;;;;;;;6.45;3.28;;;5.00;99.90;;;;;;5028501;28;20555;-61
2021/12/10 11:38:18;;;;;;;5.70;2.63;;;4.90;99.90;;;;;;5029234;28;20033;-69
2021/12/10 11:40:58;;;;;;;9.10;2.63;;;4.90;99.90;;;;;;5033329;28;20017;-62
2021/12/10 11:48:45;;;;;;;5.78;2.00;;;4.90;99.90;;;;;;5033660;28;20021;-62
2021/12/10 11:51:20;;;;;;;7.15;2.92;;;4.70;99.90;;;;;;5031367;28;20534;-75
2021/12/10 11:53:50;;;;;;;7.65;2.70;;;4.60;99.90;;;;;;5032933;28;20036;-62
2021/12/10 11:56:30;;;;;;;6.50;2.50;;;4.60;99.90;;;;;;5030675;28;20108;-70
2021/12/10 11:59:09;;;;;;;7.45;2.55;;;4.70;99.90;;;;;;5028363;28;20033;-62
2021/12/10 12:01:57;;;;;;;7.68;3.28;;;4.70;99.90;;;;;;5021333;28;20057;-63
2021/12/10 12:04:39;;;;;;;5.50;2.80;;;4.90;99.90;;;;;;5020943;28;20100;-62
2021/12/10 12:07:18;;;;;;;6.50;2.85;;;7.40;99.90;;;;;;5011837;28;20026;-60
2021/12/10 12:09:49;;;;;;;6.80;2.78;;;9.10;99.90;;;;;;5012985;28;20033;-62
2021/12/10 12:12:22;;;;;;;9.25;2.55;;;8.20;99.90;;;;;;5016405;28;20494;-67
2021/12/10 12:14:53;;;;;;;6.90;2.78;;;6.30;99.90;;;;;;5031686;28;20111;-63
2021/12/10 12:17:44;;;;;;;10.35;3.40;;;5.50;99.90;;;;;;5032271;28;20052;-61
2021/12/10 12:20:29;;;;;;;11.52;3.20;;;5.10;99.90;;;;;;5012811;28;20038;-63
2021/12/10 12:25:48;;;;;;;16.58;5.10;;;5.60;99.90;;;;;;5020168;28;20053;-62
2021/12/10 12:28:17;;;;;;;19.70;7.32;;;6.70;99.90;;;;;;5012754;28;20030;-74
2021/12/10 12:31:32;;;;;;;9.45;3.40;;;6.40;99.90;;;;;;5032598;28;20048;-63
2021/12/10 12:34:05;;;;;;;12.50;2.83;;;5.90;99.90;;;;;;4989725;28;20080;-62
2021/12/10 12:36:40;;;;;;;9.45;2.85;;;5.50;99.90;;;;;;4986003;28;20049;-63
2021/12/10 12:39:11;;;;;;;7.70;2.75;;;5.30;99.90;;;;;;4972650;28;20075;-62
2021/12/10 12:41:47;;;;;;;14.63;3.95;;;5.10;99.90;;;;;;4970158;28;20066;-62
2021/12/10 12:44:26;;;;;;;17.02;3.30;;;5.10;99.90;;;;;;4970757;28;20053;-61
2021/12/10 12:47:06;;;;;;;6.22;3.03;;;5.20;99.90;;;;;;4970880;28;20042;-62
2021/12/10 12:49:38;;;;;;;8.98;3.15;;;5.30;99.90;;;;;;4969986;28;20034;-62
2021/12/10 12:52:06;;;;;;;8.90;2.90;;;5.20;99.90;;;;;;4970329;28;20414;-61
2021/12/10 12:54:34;;;;;;;9.73;4.75;;;5.30;99.90;;;;;;4953452;28;20125;-64
2021/12/10 12:57:02;;;;;;;16.27;6.90;;;5.20;99.90;;;;;;4955003;28;20030;-62
2021/12/10 12:59:29;;;;;;;10.57;4.80;;;5.30;99.90;;;;;;4954075;28;20125;-62
2021/12/10 13:01:59;;;;;;;8.40;3.28;;;5.20;99.90;;;;;;4954882;28;20087;-65
2021/12/10 13:04:33;;;;;;;23.08;4.25;;;5.30;99.90;;;;;;4989214;28;20046;-63
2021/12/10 13:07:01;;;;;;;9.70;3.85;;;5.10;99.90;;;;;;5032726;28;20026;-63
2021/12/10 13:09:43;;;;;;;15.80;3.88;;;5.00;99.90;;;;;;5031578;28;20053;-62
2021/12/10 13:12:23;;;;;;;14.13;4.50;;;4.90;99.90;;;;;;5032214;28;20021;-62
2021/12/10 13:15:00;;;;;;;8.48;4.45;;;4.90;99.90;;;;;;5030531;28;20068;-62
2021/12/10 13:17:35;;;;;;;9.18;4.00;;;4.90;99.90;;;;;;5031377;28;20072;-64
2021/12/10 13:20:09;;;;;;;11.73;4.22;;;4.90;99.90;;;;;;5029869;28;20060;-70
2021/12/10 13:22:35;;;;;;;8.23;3.45;;;4.80;99.90;;;;;;5029544;28;20540;-62
2021/12/10 13:25:06;;;;;;;9.63;4.32;;;4.90;99.90;;;;;;5014205;28;20313;-63
2021/12/10 13:27:33;;;;;;;8.32;3.60;;;4.90;99.90;;;;;;5019914;28;20037;-62
2021/12/10 13:29:58;;;;;;;6.80;3.33;;;4.80;99.90;;;;;;5030345;28;20021;-62